createdAt,value
2022-08-28T00:00:55.535Z,97444.02
2022-08-28T00:03:23.717Z,97443.50
2022-08-28T00:05:53.932Z,97442.83
2022-08-28T00:08:22.520Z,97440.59
2022-08-28T00:10:50.589Z,97440.61
2022-08-28T00:13:21.449Z,97441.25
2022-08-28T00:15:52.819Z,97444.19
2022-08-28T00:18:21.670Z,97447.77
2022-08-28T00:20:50.963Z,97448.13
2022-08-28T00:23:19.959Z,97449.08
2022-08-28T00:25:48.549Z,97447.89
2022-08-28T00:28:23.976Z,97449.02
2022-08-28T00:30:56.167Z,97449.81
2022-08-28T00:33:33.351Z,97449.65
2022-08-28T00:36:02.853Z,97452.42
2022-08-28T00:38:31.420Z,97452.33
2022-08-28T00:41:03.759Z,97452.34
2022-08-28T00:43:47.789Z,97450.23
2022-08-28T00:46:22.982Z,97448.36
2022-08-28T00:48:51.367Z,97452.02
2022-08-28T00:51:39.201Z,97452.15
2022-08-28T00:54:08.529Z,97451.77
2022-08-28T00:56:40.088Z,97451.59
2022-08-28T00:59:15.731Z,97452.80
2022-08-28T01:01:46.561Z,97454.56
2022-08-28T01:04:18.891Z,97452.03
2022-08-28T01:06:50.026Z,97450.17
2022-08-28T01:09:20.818Z,97449.86
2022-08-28T01:11:52.155Z,97450.89
2022-08-28T01:14:26.666Z,97450.83
2022-08-28T01:16:56.141Z,97451.89
2022-08-28T01:19:31.817Z,97452.03
2022-08-28T01:22:03.087Z,97453.00
2022-08-28T01:24:32.262Z,97454.30
2022-08-28T01:27:00.333Z,97450.36
2022-08-28T01:29:29.533Z,97450.70
2022-08-28T01:31:58.117Z,97451.55
2022-08-28T01:34:26.651Z,97450.91
2022-08-28T01:36:54.671Z,97453.15
2022-08-28T01:39:27.246Z,97452.29
2022-08-28T01:41:56.271Z,97453.15
2022-08-28T01:44:27.647Z,97455.08
2022-08-28T01:46:58.921Z,97452.83
2022-08-28T01:49:29.672Z,97449.20
2022-08-28T01:51:58.869Z,97448.64
2022-08-28T01:54:28.984Z,97446.84
2022-08-28T01:56:57.163Z,97445.94
2022-08-28T01:59:25.338Z,97443.89
2022-08-28T02:01:55.365Z,97441.81
2022-08-28T02:04:31.948Z,97440.71
2022-08-28T02:07:00.614Z,97442.90
2022-08-28T02:09:29.303Z,97446.48
2022-08-28T02:11:57.514Z,97450.05
2022-08-28T02:14:25.650Z,97452.11
2022-08-28T02:16:54.127Z,97448.11
2022-08-28T02:19:22.860Z,97448.39
2022-08-28T02:21:51.404Z,97447.11
2022-08-28T02:24:20.495Z,97447.54
2022-08-28T02:26:48.675Z,97448.86
2022-08-28T02:29:18.846Z,97448.41
2022-08-28T02:31:47.578Z,97449.41
2022-08-28T02:34:15.649Z,97448.41
2022-08-28T02:36:43.827Z,97451.32
2022-08-28T02:39:12.207Z,97450.73
2022-08-28T02:41:40.583Z,97453.06
2022-08-28T02:44:09.781Z,97454.80
2022-08-28T02:46:37.895Z,97452.41
2022-08-28T02:49:06.127Z,97449.59
2022-08-28T02:51:34.917Z,97449.48
2022-08-28T02:54:03.223Z,97452.73
2022-08-28T02:56:32.294Z,97455.44
2022-08-28T02:59:00.570Z,97456.73
2022-08-28T03:01:28.693Z,97457.34
2022-08-28T03:03:57.733Z,97459.81
2022-08-28T03:06:26.014Z,97463.08
2022-08-28T03:08:54.191Z,97466.80
2022-08-28T03:11:23.179Z,97465.48
2022-08-28T03:13:51.458Z,97471.92
2022-08-28T03:16:19.701Z,97467.11
2022-08-28T03:18:48.212Z,97470.44
2022-08-28T03:21:16.392Z,97469.88
2022-08-28T03:23:44.561Z,97470.11
2022-08-28T03:26:16.132Z,97471.24
2022-08-28T03:28:49.204Z,97470.05
2022-08-28T03:31:21.689Z,97478.17
2022-08-28T03:33:51.081Z,97484.77
2022-08-28T03:36:23.459Z,97488.17
2022-08-28T03:38:53.435Z,97497.16
2022-08-28T03:41:23.474Z,97498.11
2022-08-28T03:43:51.976Z,97501.20
2022-08-28T03:46:24.001Z,97503.10
2022-08-28T03:48:54.155Z,97504.58
2022-08-28T03:51:29.398Z,97508.96
2022-08-28T03:54:00.007Z,97509.20
2022-08-28T03:56:30.633Z,97515.77
2022-08-28T03:59:01.093Z,97515.23
2022-08-28T04:01:30.026Z,97514.15
2022-08-28T04:03:58.070Z,97515.70
2022-08-28T04:06:28.123Z,97513.68
2022-08-28T04:09:00.345Z,97517.17
2022-08-28T04:11:29.129Z,97519.59
2022-08-28T04:13:58.222Z,97521.92
2022-08-28T04:16:26.555Z,97523.61
2022-08-28T04:18:54.988Z,97527.98
2022-08-28T04:21:26.337Z,97529.91
2022-08-28T04:23:55.447Z,97527.83
2022-08-28T04:26:26.105Z,97522.13
2022-08-28T04:28:55.289Z,97520.16
2022-08-28T04:31:32.447Z,97521.45
2022-08-28T04:34:03.077Z,97521.32
2022-08-28T04:36:31.660Z,97523.13
2022-08-28T04:39:00.348Z,97525.33
2022-08-28T04:41:30.061Z,97528.33
2022-08-28T04:43:58.537Z,97528.83
2022-08-28T04:46:26.645Z,97528.75
2022-08-28T04:49:00.314Z,97527.95
2022-08-28T04:51:28.899Z,97528.59
2022-08-28T04:53:58.322Z,97523.23
2022-08-28T04:56:26.956Z,97523.45
2022-08-28T04:58:55.373Z,97525.21
2022-08-28T05:01:24.915Z,97528.63
2022-08-28T05:03:59.496Z,97529.36
2022-08-28T05:06:29.713Z,97533.29
2022-08-28T05:09:00.041Z,97539.98
2022-08-28T05:11:33.148Z,97541.81
2022-08-28T05:14:05.603Z,97543.33
2022-08-28T05:16:39.974Z,97542.13
2022-08-28T05:19:08.504Z,97540.84
2022-08-28T05:21:36.608Z,97536.55
2022-08-28T05:24:05.882Z,97536.30
2022-08-28T05:26:34.665Z,97536.16
2022-08-28T05:29:03.762Z,97539.52
2022-08-28T05:31:33.224Z,97538.23
2022-08-28T05:34:04.584Z,97543.16
2022-08-28T05:36:37.506Z,97541.93
2022-08-28T05:39:08.692Z,97539.05
2022-08-28T05:41:39.483Z,97537.38
2022-08-28T05:44:10.419Z,97534.39
2022-08-28T05:46:40.527Z,97532.08
2022-08-28T05:49:10.306Z,97534.66
2022-08-28T05:51:41.909Z,97538.31
2022-08-28T05:54:10.697Z,97540.14
2022-08-28T05:56:41.228Z,97538.60
2022-08-28T05:59:10.837Z,97541.11
2022-08-28T06:01:45.602Z,97543.54
2022-08-28T06:04:23.937Z,97545.23
2022-08-28T06:06:52.761Z,97549.04
2022-08-28T06:09:29.960Z,97551.58
2022-08-28T06:12:02.165Z,97548.49
2022-08-28T06:14:31.623Z,97551.15
2022-08-28T06:17:02.458Z,97552.13
2022-08-28T06:19:32.765Z,97550.90
2022-08-28T06:22:07.214Z,97548.85
2022-08-28T06:24:36.873Z,97548.84
2022-08-28T06:27:05.375Z,97548.67
2022-08-28T06:29:33.880Z,97545.83
2022-08-28T06:32:05.013Z,97544.35
2022-08-28T06:34:34.230Z,97546.28
2022-08-28T06:37:02.600Z,97546.68
2022-08-28T06:39:30.776Z,97545.65
2022-08-28T06:41:58.966Z,97544.95
2022-08-28T06:44:27.738Z,97543.17
2022-08-28T06:46:55.912Z,97546.20
2022-08-28T06:49:24.185Z,97547.83
2022-08-28T06:51:52.258Z,97544.16
2022-08-28T06:54:23.196Z,97545.13
2022-08-28T06:56:52.607Z,97545.67
2022-08-28T06:59:20.901Z,97541.05
2022-08-28T07:01:49.721Z,97545.25
2022-08-28T07:04:17.892Z,97546.69
2022-08-28T07:06:53.748Z,97545.52
2022-08-28T07:09:24.449Z,97548.43
2022-08-28T07:11:53.433Z,97539.71
2022-08-28T07:14:21.726Z,97537.67
2022-08-28T07:16:50.483Z,97538.06
2022-08-28T07:19:20.507Z,97539.20
2022-08-28T07:21:48.682Z,97540.48
2022-08-28T07:24:18.364Z,97539.29
2022-08-28T07:26:48.039Z,97538.15
2022-08-28T07:29:18.495Z,97537.84
2022-08-28T07:31:52.477Z,97536.34
2022-08-28T07:34:22.250Z,97535.88
2022-08-28T07:36:56.387Z,97537.36
2022-08-28T07:39:24.640Z,97542.94
2022-08-28T07:41:52.808Z,97537.94
2022-08-28T07:44:39.649Z,97536.32
2022-08-28T07:47:08.863Z,97542.02
2022-08-28T07:49:39.049Z,97543.65
2022-08-28T07:52:09.057Z,97549.04
2022-08-28T07:54:40.537Z,97551.79
2022-08-28T07:57:10.333Z,97551.60
2022-08-28T07:59:38.902Z,97548.44
2022-08-28T08:02:07.385Z,97553.67
2022-08-28T08:04:35.504Z,97550.77
2022-08-28T08:07:04.962Z,97553.02
2022-08-28T08:09:38.571Z,97549.17
2022-08-28T08:12:10.143Z,97547.38
2022-08-28T08:14:40.194Z,97550.08
2022-08-28T08:17:09.044Z,97547.58
2022-08-28T08:19:37.878Z,97549.32
2022-08-28T08:22:06.319Z,97547.91
2022-08-28T08:24:35.187Z,97547.81
2022-08-28T08:27:03.877Z,97545.39
2022-08-28T08:29:36.026Z,97540.95
2022-08-28T08:32:09.134Z,97544.09
2022-08-28T08:34:42.915Z,97541.14
2022-08-28T08:37:12.031Z,97540.42
2022-08-28T08:39:41.791Z,97544.67
2022-08-28T08:42:26.617Z,97546.67
2022-08-28T08:44:57.860Z,97549.73
2022-08-28T08:47:35.247Z,97552.05
2022-08-28T08:50:17.734Z,97554.52
2022-08-28T08:53:22.798Z,97553.08
2022-08-28T08:55:53.715Z,97556.04
2022-08-28T08:58:22.524Z,97554.20
2022-08-28T09:01:00.360Z,97552.69
2022-08-28T09:04:06.075Z,97554.02
2022-08-28T09:06:50.073Z,97549.73
2022-08-28T09:09:35.345Z,97550.02
2022-08-28T09:12:08.573Z,97544.39
2022-08-28T09:14:38.815Z,97546.48
2022-08-28T09:17:08.731Z,97548.37
2022-08-28T09:19:37.033Z,97543.80
2022-08-28T09:22:05.382Z,97550.13
2022-08-28T09:24:38.135Z,97549.12
2022-08-28T09:27:26.761Z,97546.04
2022-08-28T09:30:29.403Z,97545.20
2022-08-28T09:33:01.161Z,97545.77
2022-08-28T09:35:32.253Z,97554.55
2022-08-28T09:38:21.616Z,97548.27
2022-08-28T09:41:09.104Z,97550.54
2022-08-28T09:43:38.090Z,97547.09
2022-08-28T09:46:28.232Z,97544.13
2022-08-28T09:49:14.404Z,97541.07
2022-08-28T09:51:42.270Z,97541.42
2022-08-28T09:54:25.988Z,97538.42
2022-08-28T09:56:55.280Z,97535.80
2022-08-28T09:59:26.657Z,97532.36
2022-08-28T10:01:59.639Z,97533.86
2022-08-28T10:04:52.571Z,97526.77
2022-08-28T10:07:37.745Z,97525.30
2022-08-28T10:10:29.168Z,97519.14
2022-08-28T10:13:15.770Z,97519.31
2022-08-28T10:16:21.278Z,97514.30
2022-08-28T10:19:39.983Z,97509.96
2022-08-28T10:22:31.095Z,97508.41
2022-08-28T10:25:24.149Z,97513.35
2022-08-28T10:28:27.868Z,97514.19
2022-08-28T10:31:09.789Z,97507.23
2022-08-28T10:34:07.252Z,97505.67
2022-08-28T10:36:36.104Z,97506.14
2022-08-28T10:39:22.712Z,97506.02
2022-08-28T10:42:00.316Z,97503.24
2022-08-28T10:44:54.079Z,97497.94
2022-08-28T10:47:23.945Z,97497.90
2022-08-28T10:50:02.012Z,97491.50
2022-08-28T10:52:39.518Z,97494.13
2022-08-28T10:55:28.145Z,97495.48
2022-08-28T10:58:23.818Z,97494.39
2022-08-28T11:01:03.590Z,97489.50
2022-08-28T11:03:41.587Z,97490.67
2022-08-28T11:06:20.852Z,97484.86
2022-08-28T11:09:20.666Z,97486.23
2022-08-28T11:11:49.970Z,97484.58
2022-08-28T11:14:34.018Z,97480.68
2022-08-28T11:17:10.406Z,97475.81
2022-08-28T11:20:08.389Z,97475.02
2022-08-28T11:22:53.115Z,97473.95
2022-08-28T11:25:32.514Z,97473.96
2022-08-28T11:28:39.947Z,97471.20
2022-08-28T11:31:08.062Z,97467.23
2022-08-28T11:33:42.032Z,97468.89
2022-08-28T11:36:22.187Z,97467.59
2022-08-28T11:38:53.536Z,97465.95
2022-08-28T11:41:27.705Z,97463.26
2022-08-28T11:44:11.389Z,97464.18
2022-08-28T11:46:39.641Z,97464.05
2022-08-28T11:49:29.441Z,97463.13
2022-08-28T11:52:22.294Z,97460.66
2022-08-28T11:55:02.289Z,97459.63
2022-08-28T12:00:49.590Z,97459.59
2022-08-28T12:03:44.917Z,97457.68
2022-08-28T12:06:13.622Z,97460.16
2022-08-28T12:08:53.636Z,97458.29
2022-08-28T12:11:39.924Z,97449.77
2022-08-28T12:14:11.240Z,97452.56
2022-08-28T12:17:08.881Z,97460.29
2022-08-28T12:19:52.114Z,97466.16
2022-08-28T12:22:27.190Z,97467.37
2022-08-28T12:25:03.688Z,97463.17
2022-08-28T12:27:32.162Z,97457.98
2022-08-28T12:30:02.282Z,97455.71
2022-08-28T12:32:33.057Z,97458.58
2022-08-28T12:35:02.346Z,97457.59
2022-08-28T12:37:51.194Z,97455.33
2022-08-28T12:40:28.959Z,97451.69
2022-08-28T12:42:57.151Z,97450.77
2022-08-28T12:45:38.182Z,97451.08
2022-08-28T12:48:33.471Z,97445.20
2022-08-28T12:51:07.722Z,97443.00
2022-08-28T12:53:43.613Z,97441.20
2022-08-28T12:56:14.237Z,97436.09
2022-08-28T12:58:43.642Z,97434.23
2022-08-28T13:01:12.275Z,97432.39
2022-08-28T13:04:14.091Z,97433.76
2022-08-28T13:06:42.367Z,97430.19
2022-08-28T13:09:16.997Z,97423.68
2022-08-28T13:11:49.389Z,97421.64
2022-08-28T13:14:56.348Z,97422.86
2022-08-28T13:17:47.875Z,97421.34
2022-08-28T13:20:32.030Z,97426.15
2022-08-28T13:23:00.812Z,97426.11
2022-08-28T13:25:35.844Z,97427.71
2022-08-28T13:28:13.211Z,97430.39
2022-08-28T13:30:41.494Z,97434.63
2022-08-28T13:33:27.268Z,97437.86
2022-08-28T13:35:55.413Z,97439.35
2022-08-28T13:38:25.590Z,97440.88
2022-08-28T13:40:59.861Z,97445.15
2022-08-28T13:43:30.729Z,97445.63
2022-08-28T13:45:58.980Z,97448.36
2022-08-28T13:48:28.424Z,97449.66
2022-08-28T13:51:05.010Z,97448.19
2022-08-28T13:53:35.939Z,97447.20
2022-08-28T13:56:05.240Z,97444.05
2022-08-28T13:58:33.738Z,97442.23
2022-08-28T14:01:02.724Z,97442.52
2022-08-28T14:03:37.852Z,97440.76
2022-08-28T14:06:12.024Z,97441.73
2022-08-28T14:08:45.340Z,97437.45
2022-08-28T14:11:15.783Z,97436.89
2022-08-28T14:13:47.369Z,97442.61
2022-08-28T14:16:25.684Z,97442.19
2022-08-28T14:18:54.152Z,97438.72
2022-08-28T14:21:24.812Z,97434.23
2022-08-28T14:23:53.065Z,97434.95
2022-08-28T14:26:21.319Z,97435.74
2022-08-28T14:28:49.597Z,97433.65
2022-08-28T14:31:17.947Z,97432.37
2022-08-28T14:33:46.353Z,97432.16
2022-08-28T14:36:23.336Z,97428.19
2022-08-28T14:38:54.403Z,97426.28
2022-08-28T14:41:24.699Z,97422.75
2022-08-28T14:43:54.610Z,97424.43
2022-08-28T14:46:30.055Z,97420.46
2022-08-28T14:49:00.585Z,97418.89
2022-08-28T14:51:31.524Z,97417.59
2022-08-28T14:54:01.359Z,97419.00
2022-08-28T14:56:31.807Z,97424.11
2022-08-28T14:59:01.760Z,97424.20
2022-08-28T15:01:40.475Z,97426.13
2022-08-28T15:04:12.627Z,97426.27
2022-08-28T15:06:42.567Z,97427.60
2022-08-28T15:09:13.047Z,97425.27
2022-08-28T15:11:42.352Z,97424.78
2022-08-28T15:14:11.820Z,97420.06
2022-08-28T15:16:43.967Z,97420.73
2022-08-28T15:19:16.155Z,97419.88
2022-08-28T15:21:49.657Z,97417.78
2022-08-28T15:24:21.175Z,97415.48
2022-08-28T15:26:49.582Z,97414.24
2022-08-28T15:29:18.684Z,97416.27
2022-08-28T15:31:49.272Z,97415.30
2022-08-28T15:34:22.842Z,97415.42
2022-08-28T15:36:55.158Z,97417.73
2022-08-28T15:39:45.311Z,97415.81
2022-08-28T15:42:14.884Z,97415.59
2022-08-28T15:44:43.387Z,97420.95
2022-08-28T15:47:12.891Z,97418.49
2022-08-28T15:49:46.875Z,97415.30
2022-08-28T15:52:18.873Z,97414.22
2022-08-28T16:06:35.439Z,97416.02
2022-08-28T16:09:05.853Z,97415.94
2022-08-28T16:11:33.973Z,97412.66
2022-08-28T16:14:07.238Z,97409.81
2022-08-28T16:16:35.857Z,97410.77
2022-08-28T16:19:05.423Z,97411.05
2022-08-28T16:21:34.422Z,97416.58
2022-08-28T16:24:02.800Z,97418.48
2022-08-28T16:26:31.180Z,97418.48
2022-08-28T16:28:59.218Z,97412.42
2022-08-28T16:31:27.562Z,97412.98
2022-08-28T16:33:55.903Z,97411.20
2022-08-28T16:36:25.511Z,97410.86
2022-08-28T16:39:03.463Z,97410.59
2022-08-28T16:41:32.615Z,97410.96
2022-08-28T16:44:01.506Z,97412.88
2022-08-28T16:46:30.136Z,97417.37
2022-08-28T16:48:59.685Z,97415.53
2022-08-28T16:51:27.878Z,97417.73
2022-08-28T16:53:56.778Z,97420.22
2022-08-28T16:56:25.385Z,97419.90
2022-08-28T16:58:54.542Z,97424.64
2022-08-28T17:01:24.166Z,97427.48
2022-08-28T17:03:54.649Z,97426.23
2022-08-28T17:06:29.926Z,97434.40
2022-08-28T17:08:58.983Z,97436.92
2022-08-28T17:11:28.602Z,97439.13
2022-08-28T17:13:57.102Z,97440.52
2022-08-28T17:16:26.153Z,97446.17
2022-08-28T17:18:54.378Z,97445.09
2022-08-28T17:21:42.151Z,97447.70
2022-08-28T17:24:12.700Z,97453.15
2022-08-28T17:26:42.652Z,97461.00
2022-08-28T17:29:11.684Z,97468.58
2022-08-28T17:31:41.210Z,97473.33
2022-08-28T17:34:10.533Z,97478.35
2022-08-28T17:36:40.880Z,97479.00
2022-08-28T17:39:14.366Z,97483.57
2022-08-28T17:41:42.993Z,97487.64
2022-08-28T17:44:11.656Z,97490.98
2022-08-28T17:46:41.281Z,97492.29
2022-08-28T17:49:10.575Z,97495.46
2022-08-28T17:51:43.222Z,97500.33
2022-08-28T17:54:14.283Z,97502.89
2022-08-28T17:56:43.159Z,97502.13
2022-08-28T17:59:12.777Z,97505.02
2022-08-28T18:01:42.931Z,97508.83
2022-08-28T18:04:11.978Z,97512.80
2022-08-28T18:06:40.894Z,97512.67
2022-08-28T18:09:09.775Z,97512.02
2022-08-28T18:11:38.358Z,97513.00
2022-08-28T18:14:08.466Z,97513.23
2022-08-28T18:16:38.200Z,97514.44
2022-08-28T18:19:09.850Z,97522.37
2022-08-28T18:21:39.151Z,97522.71
2022-08-28T18:24:08.112Z,97525.45
2022-08-28T18:26:36.645Z,97522.43
2022-08-28T18:29:05.001Z,97522.73
2022-08-28T18:31:34.958Z,97521.30
2022-08-28T18:34:03.628Z,97518.00
2022-08-28T18:36:43.349Z,97520.88
2022-08-28T18:39:11.645Z,97520.99
2022-08-28T18:41:43.636Z,97530.11
2022-08-28T18:44:15.105Z,97533.67
2022-08-28T18:46:45.038Z,97532.45
2022-08-28T18:49:13.884Z,97534.38
2022-08-28T18:51:44.357Z,97537.19
2022-08-28T18:54:16.012Z,97538.98
2022-08-28T18:56:46.346Z,97537.86
2022-08-28T18:59:16.885Z,97536.52
2022-08-28T19:01:45.777Z,97538.98
2022-08-28T19:04:14.048Z,97539.63
2022-08-28T19:06:42.322Z,97538.52
2022-08-28T19:09:16.991Z,97541.39
2022-08-28T19:11:49.016Z,97541.42
2022-08-28T19:14:17.255Z,97541.98
2022-08-28T19:16:46.081Z,97542.77
2022-08-28T19:19:14.256Z,97546.65
2022-08-28T19:21:42.747Z,97549.77
2022-08-28T19:24:10.988Z,97550.72
2022-08-28T19:26:39.079Z,97553.38
2022-08-28T19:29:07.567Z,97556.27
2022-08-28T19:31:38.093Z,97558.23
2022-08-28T19:34:08.188Z,97558.77
2022-08-28T19:36:36.399Z,97557.71
2022-08-28T19:39:05.492Z,97558.54
2022-08-28T19:41:34.427Z,97558.67
2022-08-28T19:44:04.342Z,97556.20
2022-08-28T19:46:34.431Z,97558.96
2022-08-28T19:49:04.879Z,97561.75
2022-08-28T19:51:33.731Z,97561.03
2022-08-28T19:54:03.825Z,97557.71
2022-08-28T19:56:33.865Z,97559.86
2022-08-28T19:59:03.979Z,97565.96
2022-08-28T20:01:39.181Z,97568.48
2022-08-28T20:04:09.249Z,97574.52
2022-08-28T20:06:37.830Z,97578.59
2022-08-28T20:09:09.476Z,97580.58
2022-08-28T20:11:44.267Z,97581.56
2022-08-28T20:14:14.609Z,97582.70
2022-08-28T20:16:45.311Z,97582.84
2022-08-28T20:19:15.070Z,97583.94
2022-08-28T20:21:45.338Z,97584.78
2022-08-28T20:24:17.885Z,97588.20
2022-08-28T20:26:46.365Z,97595.10
2022-08-28T20:29:14.997Z,97599.85
2022-08-28T20:31:47.272Z,97600.71
2022-08-28T20:34:17.984Z,97597.30
2022-08-28T20:36:46.474Z,97601.73
2022-08-28T20:39:15.717Z,97600.19
2022-08-28T20:41:44.935Z,97599.61
2022-08-28T20:44:15.774Z,97603.35
2022-08-28T20:46:44.102Z,97603.71
2022-08-28T20:49:22.373Z,97603.85
2022-08-28T20:51:53.948Z,97607.35
2022-08-28T20:54:48.704Z,97605.70
2022-08-28T20:57:20.165Z,97607.66
2022-08-28T20:59:48.641Z,97614.77
2022-08-28T21:02:20.501Z,97620.92
2022-08-28T21:04:49.695Z,97629.54
2022-08-28T21:07:20.642Z,97631.08
2022-08-28T21:10:04.540Z,97630.60
2022-08-28T21:12:36.910Z,97631.23
2022-08-28T21:15:07.468Z,97631.56
2022-08-28T21:17:35.887Z,97630.30
2022-08-28T21:20:13.891Z,97634.38
2022-08-28T21:22:43.218Z,97633.16
2022-08-28T21:25:13.478Z,97633.45
2022-08-28T21:27:43.414Z,97638.94
2022-08-28T21:30:14.610Z,97643.02
2022-08-28T21:32:43.753Z,97646.00
2022-08-28T21:35:13.245Z,97646.26
2022-08-28T21:37:42.279Z,97640.45
2022-08-28T21:40:13.381Z,97639.13
2022-08-28T21:42:42.080Z,97641.05
2022-08-28T21:45:12.262Z,97642.37
2022-08-28T21:47:43.362Z,97640.03
2022-08-28T21:50:11.696Z,97637.59
2022-08-28T21:52:40.820Z,97636.84
2022-08-28T21:55:12.811Z,97638.81
2022-08-28T21:57:42.013Z,97637.41
2022-08-28T22:00:16.097Z,97641.30
2022-08-28T22:02:44.816Z,97642.63
2022-08-28T22:05:14.030Z,97639.75
2022-08-28T22:07:42.387Z,97641.75
2022-08-28T22:10:11.043Z,97642.41
2022-08-28T22:12:39.222Z,97638.17
2022-08-28T22:15:07.885Z,97637.91
2022-08-28T22:17:35.975Z,97636.64
2022-08-28T22:20:05.047Z,97634.63
2022-08-28T22:22:51.658Z,97637.04
2022-08-28T22:25:19.865Z,97637.29
2022-08-28T22:27:47.946Z,97639.98
2022-08-28T22:30:16.104Z,97641.91
2022-08-28T22:32:45.473Z,97644.36
2022-08-28T22:35:13.577Z,97644.80
2022-08-28T22:37:41.850Z,97644.13
2022-08-28T22:40:13.484Z,97646.08
2022-08-28T22:42:42.720Z,97647.77
2022-08-28T22:45:10.935Z,97647.48
2022-08-28T22:47:39.814Z,97651.19
2022-08-28T22:50:09.328Z,97652.23
2022-08-28T22:52:38.164Z,97653.42
2022-08-28T22:55:12.688Z,97657.83
2022-08-28T22:57:41.181Z,97656.02
2022-08-28T23:00:13.578Z,97654.43
2022-08-28T23:02:43.125Z,97652.30
2022-08-28T23:05:11.937Z,97654.00
2022-08-28T23:07:40.421Z,97652.04
2022-08-28T23:10:10.014Z,97652.91
2022-08-28T23:12:38.411Z,97653.17
2022-08-28T23:15:09.996Z,97651.66
2022-08-28T23:17:38.448Z,97652.79
2022-08-28T23:20:12.417Z,97653.45
2022-08-28T23:22:40.632Z,97656.72
2022-08-28T23:25:13.746Z,97664.45
2022-08-28T23:27:43.329Z,97664.20
2022-08-28T23:30:13.069Z,97665.73
2022-08-28T23:32:41.619Z,97665.08
2022-08-28T23:35:11.739Z,97668.30
2022-08-28T23:37:42.951Z,97668.00
2022-08-28T23:40:21.828Z,97665.61
2022-08-28T23:42:50.978Z,97666.55
2022-08-28T23:45:20.957Z,97665.66
2022-08-28T23:47:49.234Z,97663.63
2022-08-28T23:50:22.257Z,97665.93
2022-08-28T23:52:50.974Z,97667.20
2022-08-28T23:55:20.381Z,97668.36
2022-08-28T23:57:51.105Z,97663.01
